Impacts TAF Board
For situational awareness. Not to be used for flight planning purposes.
IDs:

KTEX - Telluride Rgnl, CO, US

Issued at 1727 UTC 01 Feb 2023
Updated at 2315 UTC 01 Feb 2023
Potential Impact None Slight Moderate High
Time2235Z 02/00Z 02/01Z 02/02Z 02/03Z 02/04Z 02/05Z 02/06Z 02/07Z 02/08Z 02/09Z 02/10Z 02/11Z 02/12Z>>
Type OBS PRVL PRVL PRVL PRVL PRVL PRVL PRVL PRVL PRVL PRVL PRVL PRVL PRVL
VIS 10 >6 >6 >6 >6 >6 >6 >6 >6 >6 >6 >6 >6 >6
CIG -- -- -- -- -- -- -- -- -- -- -- -- -- --
Cover CLR SKC SKC SKC SKC SKC SKC SKC SKC SKC SKC SKC SKC SKC
FltCat VFR VFR VFR VFR VFR VFR VFR VFR VFR VFR VFR VFR VFR VFR
WX -- -- -- -- -- -- -- -- -- -- -- -- -- --
WDir 280 250 250 130 130 130 130 130 130 130 130 130 130 130
WSpd 10 8 8 6 6 6 6 6 6 6 6 6 6 6
WGst -- -- -- -- -- -- -- -- -- -- -- -- -- --
WSHgt -- -- -- -- -- -- -- -- -- -- -- -- -- --
WSDir -- -- -- -- -- -- -- -- -- -- -- -- -- --
WSSpd -- -- -- -- -- -- -- -- -- -- -- -- -- --
R09/27
XWnd -1 -5 -5 -3 -3 -3 -3 -3 -3 -3 -3 -3 -3 -3
HWnd -10 -7 -7 5 5 5 5 5 5 5 5 5 5 5

NOTE: LAMP data beyond the time of the TAF data is denoted as LAMP in Type and colored magenta.

Raw TAF
KTEX 011727Z 0118/0218 VRB04KT P6SM SKC
  FM012000 25008KT P6SM SKC
  FM020200 13006KT P6SM SKC


Raw METAR
KTEX 012235Z AUTO 28010KT 10SM CLR 00/M20 A3013 RMK AO2
KTEX 012215Z AUTO 27007KT 10SM CLR 00/M20 A3013 RMK AO2
KTEX 012155Z AUTO 27007KT 10SM CLR 00/M20 A3012 RMK AO2
KTEX 012135Z AUTO 27006KT 10SM CLR 00/M21 A3012 RMK AO2
KTEX 012115Z AUTO 27006KT 10SM CLR 00/M22 A3012 RMK AO2
KTEX 012055Z AUTO 26004KT 10SM CLR 00/M22 A3012 RMK AO2
KTEX 012035Z AUTO 28006KT 10SM CLR 00/M22 A3012 RMK AO2

METAR Board
Radar Display
Forecast Discussion

For situational awareness. Not to be used for flight planning purposes.